Time;durP1;ratioP1;P1;durP2;ratioP2;P2;SDS_P1;SDS_P2;PMS_P1;PMS_P2;Temp;Humidity;BMP_temperature;BMP_pressure;BME280_temperature;BME280_humidity;BME280_pressure;Samples;Min_cycle;Max_cycle;Signal;HPM_P1;HPM_P2
2022/06/28 00:02:04;;;;;;;7.65;4.80;;;16.80;99.90;;;13.32;100.00;101036.31;5047929;28;20091;-87
2022/06/28 00:04:32;;;;;;;7.32;4.53;;;16.80;99.90;;;13.30;100.00;101040.06;5048339;28;20491;-87
2022/06/28 00:07:01;;;;;;;6.50;4.10;;;16.80;99.90;;;13.23;100.00;101028.19;5047946;28;20044;-89
2022/06/28 00:09:28;;;;;;;8.23;3.83;;;16.80;99.90;;;13.20;100.00;101027.72;5043226;28;20509;-87
2022/06/28 00:11:55;;;;;;;5.53;3.80;;;16.70;99.90;;;13.16;100.00;101016.31;5041748;28;20123;-87
2022/06/28 00:17:08;;;;;;;5.00;3.72;;;16.70;99.90;;;13.13;100.00;101016.66;5047871;28;20048;-87
2022/06/28 00:19:35;;;;;;;5.82;3.92;;;16.70;99.90;;;13.11;100.00;101016.00;5041967;28;20056;-87
2022/06/28 00:22:05;;;;;;;7.43;3.75;;;16.70;99.90;;;13.10;100.00;101022.53;5045683;28;20044;-87
2022/06/28 00:24:32;;;;;;;7.50;3.70;;;16.70;99.90;;;13.09;100.00;101027.13;5048521;28;20130;-87
2022/06/28 00:26:59;;;;;;;6.55;4.32;;;16.60;99.90;;;13.06;100.00;101018.44;5047562;28;20039;-87
2022/06/28 00:29:27;;;;;;;9.23;4.05;;;16.60;99.90;;;13.04;100.00;101023.25;5047853;28;20083;-87
2022/06/28 00:31:55;;;;;;;5.85;4.07;;;16.70;99.90;;;13.03;100.00;101024.31;5049691;28;20473;-87
2022/06/28 00:34:22;;;;;;;6.50;4.30;;;16.60;99.90;;;13.05;100.00;101019.50;5050409;28;20132;-87
2022/06/28 00:36:49;;;;;;;8.32;4.38;;;16.60;99.90;;;13.03;100.00;101016.13;5050460;28;20067;-87
2022/06/28 00:39:18;;;;;;;6.40;4.20;;;16.60;99.90;;;12.99;100.00;101015.63;5043199;28;20117;-87
2022/06/28 00:41:46;;;;;;;7.10;4.43;;;16.50;99.90;;;13.01;100.00;101020.91;5051699;28;20047;-87
2022/06/28 00:44:14;;;;;;;7.75;4.60;;;16.50;99.90;;;12.98;100.00;101024.03;5034842;28;20511;-87
2022/06/28 00:46:42;;;;;;;5.80;4.13;;;16.50;99.90;;;12.97;100.00;101027.81;5051538;28;20120;-86
2022/06/28 00:49:11;;;;;;;6.85;4.60;;;16.50;99.90;;;12.95;100.00;101029.88;5048496;28;20041;-87
2022/06/28 00:51:39;;;;;;;6.82;4.78;;;16.50;99.90;;;12.94;100.00;101026.28;5051758;28;20041;-87
2022/06/28 00:54:07;;;;;;;6.90;4.05;;;16.50;99.90;;;12.90;100.00;101027.69;5050955;28;20045;-88
2022/06/28 00:56:36;;;;;;;5.68;3.60;;;16.50;99.90;;;12.89;100.00;101028.75;5050414;28;20049;-87
2022/06/28 00:59:03;;;;;;;6.13;4.13;;;16.50;99.90;;;12.86;100.00;101027.22;5050560;28;20135;-87
2022/06/28 01:01:31;;;;;;;7.68;4.50;;;16.40;99.90;;;12.84;100.00;101025.72;5050261;28;20403;-87
2022/06/28 01:03:59;;;;;;;8.00;3.92;;;16.40;99.90;;;12.80;100.00;101025.22;5049548;28;20408;-87
2022/06/28 01:06:27;;;;;;;6.80;3.83;;;16.40;99.90;;;12.80;100.00;101025.22;5050338;28;20139;-87
2022/06/28 01:08:54;;;;;;;7.05;4.47;;;16.40;99.90;;;12.78;100.00;101032.78;5046117;28;20048;-86
2022/06/28 01:11:28;;;;;;;8.10;4.38;;;16.40;99.90;;;12.78;100.00;101030.03;5030280;28;20045;-86
2022/06/28 01:14:01;;;;;;;7.78;3.88;;;16.40;99.90;;;12.80;100.00;101041.63;5030523;28;20053;-87
2022/06/28 01:16:38;;;;;;;5.53;3.90;;;16.40;99.90;;;12.80;100.00;101036.16;5030423;28;20045;-86
2022/06/28 01:19:15;;;;;;;7.25;4.18;;;16.30;99.90;;;12.78;100.00;101038.22;5048454;28;20033;-87
2022/06/28 01:21:47;;;;;;;6.03;3.88;;;16.30;99.90;;;12.78;100.00;101035.50;5050182;28;20103;-87
2022/06/28 01:24:16;;;;;;;12.00;4.10;;;16.30;99.90;;;12.74;100.00;101044.22;5049906;28;20134;-87
2022/06/28 01:26:47;;;;;;;5.47;3.83;;;16.30;99.90;;;12.70;100.00;101050.09;5049258;28;20072;-86
2022/06/28 01:29:16;;;;;;;7.05;3.80;;;16.30;99.90;;;12.70;100.00;101046.53;5049108;28;20139;-87
2022/06/28 01:31:55;;;;;;;8.45;3.85;;;16.30;99.90;;;12.66;100.00;101051.50;5048511;28;20126;-87
2022/06/28 01:34:24;;;;;;;5.82;3.55;;;16.20;99.90;;;12.65;100.00;101051.69;5049252;28;20521;-87
2022/06/28 01:36:52;;;;;;;6.72;4.00;;;16.20;99.90;;;12.64;100.00;101055.44;5048731;28;20526;-87
2022/06/28 01:39:23;;;;;;;8.00;3.60;;;16.20;99.90;;;12.60;100.00;101054.94;5045288;28;20043;-87
2022/06/28 01:41:51;;;;;;;6.95;4.00;;;16.10;99.90;;;12.58;100.00;101047.97;5046943;28;20114;-87
2022/06/28 01:44:22;;;;;;;9.45;3.65;;;16.20;99.90;;;12.58;100.00;101057.00;5049283;28;20068;-88
2022/06/28 01:46:58;;;;;;;7.93;3.83;;;16.20;99.90;;;12.57;100.00;101057.22;5047934;28;20168;-87
2022/06/28 01:49:40;;;;;;;7.45;3.50;;;16.10;99.90;;;12.56;100.00;101055.50;5045881;28;20045;-87
2022/06/28 01:52:07;;;;;;;5.68;3.60;;;16.10;99.90;;;12.57;100.00;101065.41;5048874;28;20426;-86
2022/06/28 01:54:36;;;;;;;5.95;3.80;;;16.10;99.90;;;12.57;100.00;101060.78;5050956;28;20067;-87
2022/06/28 01:57:05;;;;;;;7.95;3.67;;;16.10;99.90;;;12.58;100.00;101067.94;5048482;28;20134;-86
2022/06/28 01:59:42;;;;;;;7.35;3.83;;;16.10;99.90;;;12.63;100.00;101065.50;5033966;28;20052;-87
2022/06/28 02:02:20;;;;;;;8.48;3.60;;;16.10;99.90;;;12.60;100.00;101070.50;5048008;28;20056;-86
2022/06/28 02:05:19;;;;;;;6.82;3.72;;;16.10;99.90;;;12.55;100.00;101073.78;5049262;28;20048;-87
2022/06/28 02:07:51;;;;;;;5.60;3.58;;;16.10;99.90;;;12.49;100.00;101080.81;5064058;22;20072;-87
2022/06/28 02:10:22;;;;;;;6.00;3.63;;;16.10;99.90;;;12.47;100.00;101077.44;5002458;28;20042;-87
2022/06/28 02:12:49;;;;;;;7.88;3.90;;;16.00;99.90;;;12.44;100.00;101087.88;4989684;28;20050;-87
2022/06/28 02:15:17;;;;;;;5.97;3.60;;;16.00;99.90;;;12.40;100.00;101086.53;4999376;28;20038;-87
2022/06/28 02:17:45;;;;;;;5.93;3.70;;;16.00;99.90;;;12.43;100.00;101095.22;5018734;28;20061;-87
2022/06/28 02:20:14;;;;;;;6.97;4.05;;;16.00;99.90;;;12.44;100.00;101094.16;5005602;28;20046;-87
2022/06/28 02:22:43;;;;;;;6.78;4.10;;;16.00;99.90;;;12.44;100.00;101096.91;5006275;28;20085;-87
2022/06/28 02:25:11;;;;;;;7.75;3.92;;;16.00;99.90;;;12.39;100.00;101099.31;5004262;28;20142;-86
2022/06/28 02:27:40;;;;;;;5.78;3.50;;;16.00;99.90;;;12.38;100.00;101100.38;4990232;28;20132;-86
2022/06/28 02:30:09;;;;;;;6.68;3.85;;;16.00;99.90;;;12.33;100.00;101092.69;5005573;28;20053;-87
2022/06/28 02:32:36;;;;;;;8.18;4.35;;;15.90;99.90;;;12.32;100.00;101104.66;4988709;28;20074;-87
2022/06/28 02:40:34;;;;;;;10.30;4.30;;;15.90;99.90;;;12.27;100.00;101100.78;4989422;28;20038;-87
2022/06/28 02:43:03;;;;;;;10.18;3.90;;;15.90;99.90;;;12.25;100.00;101103.69;4990257;28;20034;-87
2022/06/28 02:45:33;;;;;;;8.27;3.95;;;15.90;99.90;;;12.26;100.00;101104.53;4988917;28;20101;-87
2022/06/28 02:48:00;;;;;;;5.63;3.28;;;15.90;99.90;;;12.22;100.00;101111.38;4990239;28;20683;-86
2022/06/28 02:50:27;;;;;;;5.47;3.45;;;15.80;99.90;;;12.21;100.00;101105.09;4989291;28;20104;-87
2022/06/28 02:52:55;;;;;;;5.65;3.92;;;15.80;99.90;;;12.21;100.00;101116.00;4989819;28;20042;-87
2022/06/28 02:55:22;;;;;;;6.05;3.70;;;15.80;99.90;;;12.21;100.00;101102.34;4990047;28;20038;-87
2022/06/28 02:57:49;;;;;;;6.28;3.63;;;15.80;99.90;;;12.21;100.00;101104.25;4989941;28;20089;-87
2022/06/28 03:00:19;;;;;;;6.50;3.40;;;15.80;99.90;;;12.16;100.00;101099.31;4989310;28;20045;-87
2022/06/28 03:02:48;;;;;;;;;;;15.80;99.90;;;12.16;100.00;101109.38;5005656;28;20064;-87
2022/06/28 03:05:20;;;;;;;7.55;4.40;;;15.80;99.90;;;12.15;100.00;101110.41;4988878;28;19922;-87
2022/06/28 03:07:48;;;;;;;7.17;4.37;;;15.80;99.90;;;12.13;100.00;101108.72;4985357;28;20050;-87
2022/06/28 03:10:18;;;;;;;8.63;4.32;;;15.80;99.90;;;12.14;100.00;101106.84;4970609;28;20097;-87
2022/06/28 03:12:45;;;;;;;8.43;4.70;;;15.70;99.90;;;12.15;100.00;101115.84;4990074;28;20164;-87
2022/06/28 03:15:13;;;;;;;6.20;3.97;;;15.70;99.90;;;12.14;100.00;101120.47;4990062;28;20050;-87
2022/06/28 03:17:43;;;;;;;8.40;4.20;;;15.70;99.90;;;12.16;100.00;101121.13;4988402;28;20078;-87
2022/06/28 03:20:12;;;;;;;8.65;4.45;;;15.70;99.90;;;12.20;100.00;101117.00;4987487;28;20073;-87
2022/06/28 03:22:40;;;;;;;9.50;5.13;;;15.70;99.90;;;12.26;100.00;101112.72;4988411;28;20089;-87
2022/06/28 03:25:09;;;;;;;8.07;5.63;;;15.70;99.90;;;12.30;100.00;101119.53;4988753;28;20085;-88
2022/06/28 03:27:37;;;;;;;9.73;5.40;;;15.70;99.90;;;12.35;100.00;101128.00;4988542;28;20493;-87
2022/06/28 03:30:06;;;;;;;10.77;6.13;;;15.70;99.90;;;12.36;100.00;101129.72;4988367;28;20052;-87
2022/06/28 03:32:33;;;;;;;14.85;6.80;;;15.70;99.90;;;12.43;100.00;101136.16;4984338;28;20416;-85
2022/06/28 03:35:05;;;;;;;12.00;6.80;;;15.80;99.90;;;12.45;100.00;101134.09;4988345;28;20070;-87
2022/06/28 03:37:33;;;;;;;9.60;6.45;;;15.80;99.90;;;12.55;100.00;101138.47;5004791;28;20100;-86
2022/06/28 03:40:05;;;;;;;13.18;7.18;;;15.80;99.90;;;12.58;100.00;101132.63;5004753;28;20049;-87
2022/06/28 03:42:34;;;;;;;12.63;7.78;;;15.80;99.90;;;12.66;100.00;101140.75;5003890;28;20137;-86
2022/06/28 03:45:01;;;;;;;12.95;7.78;;;15.90;99.90;;;12.72;100.00;101134.56;4989891;28;20081;-86
2022/06/28 03:47:28;;;;;;;11.60;7.97;;;15.80;99.90;;;12.76;100.00;101143.25;4985329;28;20046;-86
2022/06/28 03:50:19;;;;;;;11.52;7.35;;;15.90;99.90;;;12.79;100.00;101140.97;4969665;28;20058;-87
2022/06/28 03:52:47;;;;;;;16.80;8.93;;;15.90;99.90;;;12.85;100.00;101144.84;4987404;28;20053;-86
2022/06/28 03:55:14;;;;;;;17.65;7.95;;;15.90;99.90;;;12.93;100.00;101141.19;4989902;28;20050;-87
2022/06/28 03:57:49;;;;;;;13.98;8.32;;;16.00;99.90;;;13.01;100.00;101141.16;5004622;28;20054;-87
2022/06/28 04:00:17;;;;;;;11.38;8.13;;;16.00;99.90;;;13.04;100.00;101143.50;4988953;28;20090;-86
2022/06/28 04:02:50;;;;;;;14.93;8.82;;;16.00;99.90;;;13.10;100.00;101138.16;4988955;28;20047;-86
2022/06/28 04:05:27;;;;;;;12.82;8.13;;;16.00;99.90;;;13.12;100.00;101143.44;5004916;28;20519;-87
2022/06/28 04:07:55;;;;;;;13.73;8.70;;;16.10;99.90;;;13.23;100.00;101153.03;4993060;28;20053;-88
2022/06/28 04:10:34;;;;;;;14.07;9.07;;;16.00;99.90;;;13.25;100.00;101150.97;4991285;28;20509;-87
2022/06/28 04:13:10;;;;;;;12.95;8.57;;;16.10;99.90;;;13.29;100.00;101153.16;4991376;28;20042;-84
2022/06/28 04:15:38;;;;;;;12.80;8.13;;;16.10;99.90;;;13.39;100.00;101152.06;5008414;28;20046;-85
2022/06/28 04:18:09;;;;;;;17.67;9.23;;;16.20;99.90;;;13.44;100.00;101149.59;5007392;28;20393;-85
2022/06/28 04:20:58;;;;;;;21.58;9.65;;;16.20;99.90;;;13.55;100.00;101151.88;4991296;28;20042;-84
2022/06/28 04:23:26;;;;;;;16.20;9.50;;;16.20;99.90;;;13.61;100.00;101156.59;5001499;28;20042;-85
2022/06/28 04:25:54;;;;;;;17.33;9.90;;;16.30;99.90;;;13.69;100.00;101156.50;4991048;28;20401;-85
2022/06/28 04:28:40;;;;;;;16.50;9.65;;;16.30;99.90;;;13.77;100.00;101161.03;4991446;28;20054;-84
2022/06/28 04:31:12;;;;;;;16.10;9.65;;;16.30;99.90;;;13.88;100.00;101151.50;4990862;28;20054;-85
2022/06/28 04:33:39;;;;;;;16.52;10.07;;;16.40;99.90;;;14.04;100.00;101161.38;5007666;28;20074;-85
2022/06/28 04:36:10;;;;;;;17.15;10.40;;;16.50;99.90;;;14.20;100.00;101154.81;4991271;28;20042;-85
2022/06/28 04:38:38;;;;;;;17.92;9.82;;;16.60;99.90;;;14.33;100.00;101154.97;5007608;28;20049;-84
2022/06/28 04:41:19;;;;;;;16.65;10.60;;;16.70;99.90;;;14.51;100.00;101150.94;4989096;28;20046;-85
2022/06/28 04:43:46;;;;;;;14.85;10.50;;;16.70;99.90;;;14.65;100.00;101144.59;4992209;28;20516;-85
2022/06/28 04:46:19;;;;;;;17.75;10.30;;;16.80;99.90;;;14.78;100.00;101150.19;4991569;28;20137;-85
2022/06/28 04:48:48;;;;;;;15.48;10.35;;;16.90;99.90;;;14.90;100.00;101152.41;4990785;28;20070;-86
2022/06/28 04:51:17;;;;;;;18.50;9.73;;;17.00;99.90;;;15.04;100.00;101151.44;5006954;28;20211;-86
2022/06/28 04:53:47;;;;;;;16.27;10.13;;;17.10;99.90;;;15.11;100.00;101146.88;4991245;28;20042;-85
2022/06/28 04:56:16;;;;;;;16.92;9.45;;;17.20;99.90;;;15.28;100.00;101154.81;5007747;28;20054;-86
2022/06/28 04:58:49;;;;;;;19.65;10.27;;;17.30;99.90;;;15.45;100.00;101148.78;5006980;28;20066;-86
2022/06/28 05:01:16;;;;;;;14.70;10.18;;;17.30;99.90;;;15.55;100.00;101148.44;5008912;28;20046;-88
2022/06/28 05:03:46;;;;;;;19.15;9.93;;;17.40;99.90;;;15.70;100.00;101152.97;4990733;28;20038;-86
2022/06/28 05:06:33;;;;;;;15.48;9.45;;;17.50;99.90;;;15.81;100.00;101149.66;4992992;28;20061;-87
2022/06/28 05:09:00;;;;;;;18.38;8.80;;;17.60;99.90;;;15.94;100.00;101152.47;4990216;28;20042;-86
2022/06/28 05:11:30;;;;;;;14.50;8.40;;;17.70;99.90;;;16.08;100.00;101153.38;4990189;28;20045;-87
2022/06/28 05:14:17;;;;;;;14.32;8.85;;;17.80;99.90;;;16.23;100.00;101145.81;4990314;28;20517;-86
2022/06/28 05:16:45;;;;;;;12.98;8.38;;;17.90;99.90;;;16.27;100.00;101151.75;4990822;28;20046;-87
2022/06/28 05:19:14;;;;;;;16.05;8.70;;;18.00;99.90;;;16.28;100.00;101142.47;4990476;28;20599;-96
2022/06/28 05:21:42;;;;;;;16.42;8.60;;;18.00;99.90;;;16.28;100.00;101152.59;5007667;28;20104;-91
2022/06/28 05:24:10;;;;;;;14.38;9.23;;;18.00;99.90;;;16.29;100.00;101149.63;4990608;28;20129;-89
2022/06/28 05:26:52;;;;;;;15.50;8.23;;;18.10;99.90;;;16.27;100.00;101146.25;4980986;28;20051;-90
2022/06/28 05:29:21;;;;;;;13.13;7.43;;;18.10;99.90;;;16.29;100.00;101152.38;4986664;28;20393;-90
2022/06/28 05:31:48;;;;;;;13.43;8.15;;;18.10;99.90;;;16.28;100.00;101150.72;5006904;28;20572;-89
2022/06/28 05:34:16;;;;;;;15.32;8.52;;;18.10;99.90;;;16.28;100.00;101150.72;4991518;28;20058;-89
2022/06/28 05:36:45;;;;;;;13.75;8.20;;;18.10;99.90;;;16.30;100.00;101150.50;5007410;28;20054;-89
2022/06/28 05:39:15;;;;;;;11.20;6.97;;;18.10;99.90;;;16.30;100.00;101151.34;5003095;28;20499;-88
2022/06/28 05:41:42;;;;;;;13.48;6.68;;;18.10;99.90;;;16.35;100.00;101156.19;4986310;28;20137;-88
2022/06/28 05:44:11;;;;;;;13.38;7.13;;;18.10;99.90;;;16.35;100.00;101148.81;4991602;28;20496;-88
2022/06/28 05:46:39;;;;;;;14.60;6.85;;;18.20;99.90;;;16.35;100.00;101147.97;4990593;28;20099;-85
2022/06/28 05:49:07;;;;;;;11.25;6.50;;;18.20;99.90;;;16.36;100.00;101150.50;5004975;28;20055;-86
2022/06/28 05:51:35;;;;;;;15.75;6.90;;;18.20;99.90;;;16.38;100.00;101142.91;4990098;28;20530;-85
2022/06/28 05:54:04;;;;;;;13.18;6.82;;;18.20;99.90;;;16.38;100.00;101148.41;4986959;28;20042;-87
2022/06/28 05:56:32;;;;;;;16.40;6.13;;;18.20;99.90;;;16.56;100.00;101138.72;5005111;28;20155;-89
2022/06/28 05:58:59;;;;;;;12.18;6.43;;;18.40;99.90;;;18.64;100.00;101129.75;4987186;28;20047;-91
2022/06/28 06:01:26;;;;;;;11.85;6.47;;;18.70;99.90;;;21.09;88.19;101148.31;5006811;28;20042;-90
2022/06/28 06:03:57;;;;;;;9.02;5.30;;;19.10;99.90;;;23.00;77.63;101131.78;5003725;28;20141;-89
2022/06/28 06:06:25;;;;;;;9.85;5.40;;;19.50;99.90;;;24.79;67.39;101124.94;4990145;28;20089;-90
2022/06/28 06:08:53;;;;;;;10.75;5.05;;;20.00;99.90;;;26.48;58.88;101131.47;4989882;28;20137;-90
2022/06/28 06:11:22;;;;;;;13.15;5.68;;;20.40;99.90;;;27.87;53.54;101139.75;4990167;28;20116;-90
2022/06/28 06:13:49;;;;;;;8.73;4.53;;;20.80;99.90;;;29.03;49.95;101147.78;4982942;28;20472;-92
2022/06/28 06:16:17;;;;;;;12.75;4.72;;;21.20;99.90;;;30.11;46.51;101143.00;4989832;28;20050;-92
2022/06/28 06:18:44;;;;;;;8.68;4.40;;;21.60;99.90;;;30.60;43.09;101136.16;4988786;28;20054;-92
2022/06/28 06:21:12;;;;;;;8.52;4.18;;;21.90;98.40;;;31.44;40.74;101140.91;5202732;23;20754;-91
2022/06/28 06:23:39;;;;;;;12.88;4.45;;;22.20;96.90;;;32.03;39.63;101146.00;5028636;28;20057;-92
2022/06/28 06:26:31;;;;;;;7.18;3.53;;;22.40;96.40;;;32.55;37.67;101140.84;5031013;28;20060;-93
2022/06/28 06:28:58;;;;;;;7.10;3.88;;;22.70;95.10;;;32.85;37.36;101144.13;5013239;28;20566;-90
2022/06/28 06:31:29;;;;;;;8.52;3.83;;;22.90;94.20;;;32.84;36.45;101142.44;5004571;28;20499;-92
2022/06/28 06:34:15;;;;;;;6.80;3.70;;;23.00;93.60;;;32.87;36.73;101151.09;5009951;28;20137;-91
2022/06/28 06:36:50;;;;;;;11.10;4.07;;;23.00;93.70;;;30.42;40.16;101149.06;5025759;28;20108;-92
2022/06/28 06:39:19;;;;;;;9.60;4.07;;;23.00;93.60;;;26.56;48.32;101159.94;5014239;28;20101;-90
2022/06/28 06:41:47;;;;;;;11.73;4.18;;;23.00;93.50;;;23.99;56.04;101166.34;5007586;28;20077;-93
2022/06/28 06:44:15;;;;;;;11.23;3.78;;;22.90;93.30;;;22.58;63.66;101166.31;5003519;28;20076;-91
2022/06/28 06:46:43;;;;;;;12.80;3.50;;;22.70;93.90;;;21.91;68.59;101168.78;5008469;28;20451;-91
2022/06/28 06:49:14;;;;;;;10.75;3.95;;;22.60;95.00;;;21.37;71.41;101169.78;4996126;28;20046;-90
2022/06/28 06:51:44;;;;;;;10.18;4.00;;;22.50;94.90;;;21.03;73.76;101175.03;5010395;28;20133;-90
2022/06/28 06:54:12;;;;;;;10.80;4.32;;;22.30;95.60;;;20.79;75.88;101170.53;5024813;28;20042;-91
2022/06/28 06:56:41;;;;;;;10.85;3.90;;;22.20;95.50;;;20.58;77.15;101181.03;5008855;28;20064;-89
2022/06/28 06:59:13;;;;;;;12.65;4.28;;;22.10;96.30;;;20.47;77.54;101179.91;5022328;28;20136;-88
2022/06/28 07:01:41;;;;;;;13.20;3.95;;;22.00;96.10;;;20.41;78.25;101177.22;5009205;28;20149;-91
2022/06/28 07:04:10;;;;;;;12.90;4.50;;;21.90;96.50;;;20.37;77.13;101174.09;5023775;28;20500;-89
2022/06/28 07:06:38;;;;;;;10.27;4.00;;;21.80;95.60;;;20.36;76.95;101177.09;5008225;28;20098;-88
2022/06/28 07:09:06;;;;;;;11.70;4.05;;;21.70;95.80;;;20.15;75.44;101173.75;5013220;28;20051;-87
2022/06/28 07:11:33;;;;;;;11.75;3.47;;;21.60;95.00;;;20.12;78.40;101179.72;5008519;28;20108;-86
2022/06/28 07:14:01;;;;;;;9.27;3.63;;;21.50;96.60;;;20.14;78.40;101172.03;5007290;28;20069;-86
2022/06/28 07:16:30;;;;;;;8.93;3.17;;;21.50;97.30;;;20.06;77.87;101178.72;5007600;28;20054;-87
2022/06/28 07:18:58;;;;;;;8.10;2.55;;;21.40;96.50;;;20.07;78.84;101176.81;5006030;28;20066;-86
2022/06/28 07:21:25;;;;;;;6.60;2.80;;;21.40;96.80;;;20.03;79.73;101187.50;5009068;28;20447;-87
2022/06/28 07:23:52;;;;;;;10.38;2.75;;;21.30;97.20;;;20.11;79.28;101180.81;5007279;28;20108;-93
2022/06/28 07:26:20;;;;;;;9.20;2.40;;;21.30;97.40;;;20.13;81.39;101186.13;5006953;28;20041;-90
2022/06/28 07:28:47;;;;;;;5.00;2.00;;;21.30;98.50;;;20.21;80.29;101178.34;5006954;28;20581;-92
2022/06/28 07:31:15;;;;;;;6.35;2.17;;;21.30;98.20;;;20.13;78.28;101175.91;5010491;28;20070;-93
2022/06/28 07:33:44;;;;;;;5.70;2.08;;;21.20;96.80;;;20.06;79.03;101180.66;5003388;28;20049;-92
2022/06/28 07:36:16;;;;;;;7.70;2.30;;;21.20;97.10;;;20.08;79.32;101172.97;5025529;28;20092;-91
2022/06/28 07:38:44;;;;;;;7.93;2.28;;;21.20;97.30;;;20.04;79.45;101171.75;5002556;28;20116;-91
2022/06/28 07:41:20;;;;;;;7.03;2.30;;;21.20;97.50;;;20.04;79.54;101174.50;5010222;28;20048;-93
2022/06/28 07:44:06;;;;;;;6.07;1.83;;;21.20;97.70;;;20.01;78.99;101170.31;5007880;28;20076;-92
2022/06/28 07:46:34;;;;;;;7.82;2.17;;;21.20;97.10;;;20.12;81.91;101168.66;5029714;28;20806;-96
2022/06/28 07:49:04;;;;;;;8.23;2.00;;;21.20;98.80;;;20.16;78.38;101169.88;5011880;28;20218;-94
2022/06/28 07:54:19;;;;;;;8.77;2.40;;;21.30;97.40;;;19.96;76.95;101174.84;5022865;28;20527;-92
2022/06/28 07:56:59;;;;;;;7.28;2.40;;;21.20;95.80;;;20.07;77.99;101171.31;5008083;28;20049;-90
2022/06/28 07:59:27;;;;;;;6.13;1.70;;;21.20;96.30;;;20.08;77.94;101168.28;5028403;28;20061;-94
2022/06/28 08:01:55;;;;;;;6.05;1.80;;;21.20;96.20;;;20.14;76.77;101174.81;5008979;28;20049;-89
2022/06/28 08:04:30;;;;;;;4.90;1.70;;;21.20;96.30;;;20.21;77.60;101166.44;5005765;28;20049;-89
2022/06/28 08:07:00;;;;;;;4.75;1.90;;;21.20;96.90;;;20.28;78.99;101167.19;5007899;28;20042;-89
2022/06/28 08:09:30;;;;;;;8.13;2.15;;;21.30;97.60;;;20.35;81.25;101165.16;5057078;23;20043;-88
2022/06/28 08:11:57;;;;;;;4.25;1.38;;;21.30;98.80;;;20.40;77.63;101161.72;5069840;28;20052;-89
2022/06/28 08:14:24;;;;;;;4.90;1.50;;;21.30;97.00;;;20.47;77.25;101162.47;5063584;28;20119;-94
2022/06/28 08:16:53;;;;;;;6.13;1.98;;;21.40;96.90;;;20.46;76.13;101146.94;5077011;28;20507;-88
2022/06/28 08:19:20;;;;;;;6.43;1.70;;;21.40;96.80;;;20.43;76.00;101156.56;5069412;28;20052;-88
2022/06/28 08:21:50;;;;;;;7.30;1.40;;;21.30;96.00;;;20.34;73.71;101157.13;5068426;28;20056;-88
2022/06/28 08:24:18;;;;;;;5.22;1.35;;;21.40;94.30;;;20.41;76.97;101160.63;5057106;28;20051;-87
2022/06/28 08:26:46;;;;;;;12.07;1.90;;;21.40;96.50;;;20.47;76.92;101160.53;5058215;28;20048;-87
2022/06/28 08:29:15;;;;;;;7.75;1.92;;;21.40;96.60;;;20.39;75.63;101148.97;5053478;28;20033;-88
2022/06/28 08:31:44;;;;;;;5.20;1.80;;;21.40;95.60;;;20.55;78.85;101145.53;5059475;28;20041;-88
2022/06/28 08:34:12;;;;;;;4.95;1.50;;;21.50;98.00;;;20.58;75.58;101145.09;5069157;28;20549;-89
2022/06/28 08:36:39;;;;;;;6.40;1.50;;;21.50;96.00;;;20.46;76.35;101136.72;5070754;28;20044;-87
2022/06/28 08:39:08;;;;;;;5.40;1.50;;;21.50;96.20;;;20.51;74.96;101144.34;5055068;28;20053;-87
2022/06/28 08:41:36;;;;;;;5.30;1.60;;;21.50;95.40;;;20.67;77.66;101138.13;5059616;28;20072;-87
2022/06/28 08:44:04;;;;;;;6.80;1.50;;;21.50;97.20;;;20.65;73.18;101136.69;5059939;28;20048;-87
2022/06/28 08:46:35;;;;;;;10.13;1.85;;;21.50;94.40;;;20.68;75.25;101142.59;5067073;28;20162;-87
2022/06/28 08:49:10;;;;;;;6.40;1.50;;;21.60;95.40;;;20.62;71.41;101135.25;5061141;28;20049;-88
2022/06/28 08:51:39;;;;;;;5.00;1.38;;;21.60;92.80;;;20.69;72.92;101136.00;5059666;28;20052;-88
2022/06/28 08:54:09;;;;;;;8.52;1.50;;;21.60;93.90;;;20.83;77.52;101130.25;5057091;28;20043;-88
2022/06/28 08:56:39;;;;;;;5.68;1.48;;;21.70;97.70;;;20.97;75.52;101130.88;5060254;28;20068;-88
2022/06/28 08:59:08;;;;;;;9.70;1.70;;;21.80;96.00;;;20.90;72.76;101130.97;5066252;28;20049;-88
2022/06/28 09:01:36;;;;;;;6.28;1.95;;;21.80;93.70;;;20.89;72.70;101121.84;5063205;28;20048;-88
2022/06/28 09:04:05;;;;;;;6.20;1.58;;;21.80;93.50;;;20.92;74.97;101130.75;5062783;28;20111;-87
2022/06/28 09:06:32;;;;;;;7.15;1.70;;;21.80;95.40;;;20.98;75.98;101127.00;5062872;28;20051;-88
2022/06/28 09:08:59;;;;;;;3.92;1.35;;;21.90;96.20;;;21.04;73.09;101132.44;5062366;28;20044;-88
2022/06/28 09:11:38;;;;;;;7.30;1.48;;;21.90;94.20;;;21.08;72.75;101128.13;5060683;28;20044;-88
2022/06/28 09:14:22;;;;;;;5.07;1.35;;;21.90;94.10;;;21.07;72.94;101131.94;5062837;28;20052;-88
2022/06/28 09:16:49;;;;;;;6.72;1.70;;;21.90;93.60;;;21.03;72.05;101118.84;5062900;28;20051;-88
2022/06/28 09:19:17;;;;;;;5.50;1.35;;;21.90;93.40;;;21.01;69.07;101124.63;5056928;28;20041;-87
2022/06/28 09:21:46;;;;;;;6.15;1.27;;;21.90;91.50;;;21.05;71.75;101123.03;5055902;28;20040;-88
2022/06/28 09:24:25;;;;;;;7.25;1.50;;;21.90;93.00;;;21.12;70.82;101122.09;5062555;28;20043;-85
2022/06/28 09:26:55;;;;;;;5.00;1.80;;;22.00;92.70;;;21.15;70.70;101121.59;5063422;28;20045;-85
2022/06/28 09:29:23;;;;;;;4.85;1.60;;;22.00;92.60;;;21.16;72.74;101117.78;5062864;28;20533;-85
2022/06/28 09:31:50;;;;;;;5.93;1.45;;;22.00;93.80;;;21.17;71.05;101116.69;5060623;28;20048;-86
2022/06/28 09:34:17;;;;;;;6.25;1.75;;;22.00;92.60;;;21.15;69.45;101116.94;5059690;28;20040;-85
2022/06/28 09:36:55;;;;;;;4.93;1.50;;;22.00;90.20;;;21.17;68.56;101119.44;5053016;28;20036;-85
2022/06/28 09:39:27;;;;;;;3.90;1.23;;;22.00;91.10;;;21.22;72.14;101111.28;5050115;28;20123;-85
2022/06/28 09:41:59;;;;;;;5.70;1.70;;;22.00;93.70;;;21.29;69.34;101107.28;5059921;28;20044;-84
2022/06/28 09:44:29;;;;;;;7.63;2.00;;;22.10;91.50;;;21.31;67.77;101109.00;5064928;28;20576;-85
2022/06/28 09:46:57;;;;;;;6.05;1.88;;;22.10;90.00;;;21.31;66.63;101104.28;5048959;28;20559;-81
2022/06/28 09:49:29;;;;;;;5.75;1.50;;;22.10;89.10;;;21.37;69.33;101092.22;5055995;28;20033;-85
2022/06/28 09:51:59;;;;;;;6.13;1.63;;;22.10;91.50;;;21.45;72.06;101094.66;5062005;28;20044;-85
2022/06/28 09:54:28;;;;;;;6.70;1.92;;;22.20;93.50;;;21.56;70.86;101101.28;5061545;28;20036;-85
2022/06/28 09:56:58;;;;;;;5.85;1.83;;;22.30;92.90;;;21.56;67.65;101094.91;5068799;28;20044;-85
2022/06/28 09:59:29;;;;;;;7.40;1.80;;;22.40;90.00;;;21.50;68.61;101096.72;5065912;28;20147;-85
2022/06/28 10:01:57;;;;;;;7.15;1.63;;;22.30;90.80;;;21.58;68.65;101098.25;5069548;28;20146;-85
2022/06/28 10:04:27;;;;;;;6.93;1.80;;;22.40;91.00;;;21.64;70.53;101097.28;5058787;28;20037;-84
2022/06/28 10:06:54;;;;;;;7.32;1.92;;;22.40;92.00;;;21.69;65.57;101091.84;5054424;28;20742;-84
2022/06/28 10:09:22;;;;;;;4.47;1.55;;;22.50;88.60;;;21.65;66.20;101097.03;5057563;28;20043;-84
2022/06/28 10:17:39;;;;;;;5.75;1.45;;;22.40;89.70;;;21.68;68.95;101087.41;5060899;28;20044;-84
2022/06/28 10:20:11;;;;;;;6.05;1.58;;;22.50;90.90;;;21.78;67.58;101078.44;5050351;28;20041;-84
2022/06/28 10:22:39;;;;;;;6.60;1.70;;;22.50;90.20;;;21.83;67.07;101079.41;5050056;28;20586;-84
2022/06/28 10:25:16;;;;;;;7.38;1.50;;;22.60;89.80;;;21.89;65.91;101076.75;5052360;28;20048;-84
2022/06/28 10:27:49;;;;;;;5.53;1.45;;;22.60;88.90;;;21.97;65.77;101077.19;5054537;28;20037;-84
2022/06/28 10:30:31;;;;;;;5.20;1.45;;;22.70;88.00;;;21.88;63.51;101070.34;5056460;28;20041;-85
2022/06/28 10:33:05;;;;;;;6.75;1.50;;;22.70;86.30;;;21.90;63.73;101061.81;5054612;28;20048;-85
2022/06/28 10:36:13;;;;;;;8.32;1.70;;;22.70;86.90;;;22.00;63.44;101062.00;5052275;28;20116;-84
2022/06/28 10:39:12;;;;;;;3.90;1.63;;;22.70;86.90;;;22.01;61.99;101058.16;5057691;28;20177;-84